createdAt,value
2019-04-23T00:01:16.493Z,4.70
2019-04-23T00:03:30.645Z,5.17
2019-04-23T00:06:12.113Z,5.10
2019-04-23T00:08:35.770Z,4.90
2019-04-23T00:11:08.687Z,5.10
2019-04-23T00:13:37.384Z,5.07
2019-04-23T00:16:21.973Z,4.67
2019-04-23T00:18:42.569Z,5.40
2019-04-23T00:21:31.863Z,5.40
2019-04-23T00:24:13.913Z,5.30
2019-04-23T00:26:42.701Z,5.67
2019-04-23T00:29:08.311Z,5.67
2019-04-23T00:31:46.413Z,5.83
2019-04-23T00:34:04.209Z,5.30
2019-04-23T00:36:44.777Z,5.13
2019-04-23T00:39:17.294Z,5.70
2019-04-23T00:41:36.515Z,5.27
2019-04-23T00:44:01.883Z,5.40
2019-04-23T00:46:34.988Z,5.57
2019-04-23T00:49:06.086Z,5.20
2019-04-23T00:51:36.929Z,5.10
2019-04-23T00:54:05.912Z,5.13
2019-04-23T00:59:08.271Z,5.37
2019-04-23T01:01:47.678Z,5.23
2019-04-23T01:04:15.663Z,4.97
2019-04-23T01:06:37.866Z,4.50
2019-04-23T01:09:08.480Z,5.07
2019-04-23T01:11:39.290Z,5.27
2019-04-23T01:14:13.652Z,4.47
2019-04-23T01:16:38.199Z,4.73
2019-04-23T01:19:24.423Z,4.90
2019-04-23T01:21:34.773Z,4.67
2019-04-23T01:24:21.278Z,4.63
2019-04-23T01:27:51.375Z,4.90
2019-04-23T01:35:12.846Z,4.53
2019-04-23T01:37:36.770Z,4.90
2019-04-23T01:42:40.481Z,4.30
2019-04-23T01:45:13.246Z,4.80
2019-04-23T01:47:43.810Z,3.73
2019-04-23T01:50:14.054Z,4.10
2019-04-23T01:52:45.677Z,4.50
2019-04-23T01:55:19.285Z,3.90
2019-04-23T01:57:47.200Z,4.20
2019-04-23T02:00:17.156Z,4.70
2019-04-23T02:02:49.956Z,3.87
2019-04-23T02:05:23.279Z,4.03
2019-04-23T02:10:23.580Z,4.03
2019-04-23T02:12:49.665Z,3.77
2019-04-23T02:15:16.842Z,3.77
2019-04-23T02:17:53.245Z,3.83
2019-04-23T02:20:21.941Z,3.87
2019-04-23T02:23:21.308Z,3.17
2019-04-23T02:28:23.068Z,3.40
2019-04-23T02:41:05.281Z,3.70
2019-04-23T02:48:24.696Z,4.00
2019-04-23T02:53:37.609Z,3.83
2019-04-23T02:56:01.206Z,4.57
2019-04-23T02:58:42.269Z,3.80
2019-04-23T03:01:15.284Z,3.70
2019-04-23T03:04:17.357Z,3.77
2019-04-23T03:06:14.971Z,4.33
2019-04-23T03:08:46.520Z,4.07
2019-04-23T03:16:54.939Z,3.70
2019-04-23T03:19:15.269Z,3.70
2019-04-23T03:22:01.497Z,4.00
2019-04-23T03:24:59.858Z,3.83
2019-04-23T03:27:31.575Z,3.60
2019-04-23T03:29:57.234Z,3.80
2019-04-23T03:42:24.470Z,3.70
2019-04-23T03:45:16.649Z,3.67
2019-04-23T03:54:58.266Z,3.90
2019-04-23T03:57:32.837Z,4.10
2019-04-23T04:00:06.966Z,3.93
2019-04-23T04:02:39.889Z,4.43
2019-04-23T04:07:39.370Z,4.43
2019-04-23T04:15:31.681Z,4.27
2019-04-23T04:17:50.190Z,4.00
2019-04-23T04:20:10.130Z,3.90
2019-04-23T04:22:49.449Z,3.70
2019-04-23T04:25:09.176Z,4.43
2019-04-23T04:27:45.344Z,4.43
2019-04-23T04:32:36.513Z,4.17
2019-04-23T04:40:23.557Z,3.73
2019-04-23T04:42:41.852Z,4.10
2019-04-23T04:45:28.084Z,3.80
2019-04-23T04:50:10.359Z,3.67
2019-04-23T04:55:21.052Z,3.83
2019-04-23T05:00:39.930Z,4.33
2019-04-23T05:07:48.167Z,4.60
2019-04-23T05:10:32.471Z,4.47
2019-04-23T05:13:06.130Z,4.53
2019-04-23T05:15:20.261Z,4.30
2019-04-23T05:20:46.275Z,4.50
2019-04-23T05:23:25.419Z,5.03
2019-04-23T05:25:37.822Z,4.30
2019-04-23T05:28:16.929Z,4.50
2019-04-23T05:30:44.515Z,5.07
2019-04-23T05:33:18.562Z,4.97
2019-04-23T05:36:09.284Z,4.87
2019-04-23T05:38:29.955Z,5.50
2019-04-23T05:43:19.118Z,5.17
2019-04-23T05:45:53.109Z,5.37
2019-04-23T05:48:19.806Z,5.43
2019-04-23T05:53:18.545Z,4.97
2019-04-23T05:58:26.777Z,5.47
2019-04-23T06:01:08.710Z,5.40
2019-04-23T06:03:22.736Z,5.07
2019-04-23T06:06:03.302Z,4.67
2019-04-23T06:11:05.628Z,4.97
2019-04-23T06:13:26.191Z,5.17
2019-04-23T06:15:58.213Z,4.73
2019-04-23T06:18:30.702Z,4.97
2019-04-23T06:21:03.046Z,4.93
2019-04-23T06:23:41.773Z,5.10
2019-04-23T06:26:19.221Z,5.13
2019-04-23T06:28:31.644Z,4.80
2019-04-23T06:31:02.333Z,5.00
2019-04-23T06:33:32.701Z,5.63
2019-04-23T06:36:05.632Z,4.80
2019-04-23T06:38:46.075Z,4.10
2019-04-23T06:41:09.936Z,4.63
2019-04-23T06:43:58.410Z,4.23
2019-04-23T06:46:34.769Z,4.63
2019-04-23T06:48:54.891Z,4.50
2019-04-23T06:51:25.853Z,4.43
2019-04-23T06:54:00.054Z,4.00
2019-04-23T06:59:00.813Z,4.43
2019-04-23T07:01:27.093Z,4.47
2019-04-23T07:04:04.955Z,3.77
2019-04-23T07:06:38.471Z,3.80
2019-04-23T07:09:12.037Z,3.90
2019-04-23T07:11:42.951Z,4.10
2019-04-23T07:13:58.515Z,4.40
2019-04-23T07:16:41.329Z,3.97
2019-04-23T07:19:09.530Z,4.10
2019-04-23T07:21:55.804Z,4.03
2019-04-23T07:24:16.849Z,3.73
2019-04-23T07:26:42.473Z,4.50
2019-04-23T07:29:10.646Z,4.70
2019-04-23T07:31:44.529Z,4.00
2019-04-23T07:39:43.074Z,4.53
2019-04-23T07:45:02.319Z,4.33
2019-04-23T07:47:54.108Z,4.30
2019-04-23T07:50:38.196Z,3.90
2019-04-23T07:53:03.540Z,4.57
2019-04-23T07:55:34.458Z,5.07
2019-04-23T07:58:04.129Z,4.73
2019-04-23T08:00:27.620Z,4.00
2019-04-23T08:03:04.244Z,4.30
2019-04-23T08:05:32.011Z,4.30
2019-04-23T08:07:55.493Z,4.00
2019-04-23T08:10:29.689Z,4.23
2019-04-23T08:13:00.974Z,4.50
2019-04-23T08:15:28.289Z,4.20
2019-04-23T08:17:58.557Z,4.43
2019-04-23T08:20:29.978Z,4.03
2019-04-23T08:23:03.876Z,4.23
2019-04-23T08:26:03.239Z,4.40
2019-04-23T08:28:35.498Z,3.90
2019-04-23T08:31:05.492Z,4.00
2019-04-23T08:33:33.562Z,4.00
2019-04-23T08:36:09.474Z,4.40
2019-04-23T08:38:29.407Z,4.17
2019-04-23T08:41:14.290Z,4.67
2019-04-23T08:43:41.849Z,4.90
2019-04-23T08:46:18.448Z,4.60
2019-04-23T08:48:49.654Z,5.30
2019-04-23T08:51:32.393Z,4.80
2019-04-23T08:54:11.731Z,4.57
2019-04-23T08:56:21.860Z,4.00
2019-04-23T08:58:47.424Z,4.80
2019-04-23T09:01:15.598Z,4.67
2019-04-23T09:03:45.914Z,5.00
2019-04-23T09:06:24.536Z,4.43
2019-04-23T09:08:49.684Z,4.30
2019-04-23T09:11:35.199Z,4.37
2019-04-23T09:13:57.506Z,4.70
2019-04-23T09:16:28.851Z,4.27
2019-04-23T09:18:52.832Z,5.07
2019-04-23T09:23:59.002Z,4.40
2019-04-23T09:26:22.421Z,4.40
2019-04-23T09:29:02.486Z,4.50
2019-04-23T09:32:07.741Z,4.43
2019-04-23T09:34:35.046Z,4.30
2019-04-23T09:37:18.750Z,4.70
2019-04-23T09:39:59.539Z,4.03
2019-04-23T09:45:41.209Z,4.50
2019-04-23T09:48:11.666Z,4.00
2019-04-23T09:50:46.484Z,4.13
2019-04-23T09:53:18.893Z,4.23
2019-04-23T09:55:51.587Z,4.50
2019-04-23T09:58:11.725Z,4.07
2019-04-23T10:00:44.942Z,3.80
2019-04-23T10:03:09.076Z,4.80
2019-04-23T10:05:33.569Z,5.00
2019-04-23T10:08:03.054Z,4.50
2019-04-23T10:10:26.008Z,4.70
2019-04-23T10:12:55.755Z,4.47
2019-04-23T10:15:30.438Z,5.13
2019-04-23T10:17:56.296Z,4.57
2019-04-23T10:20:26.764Z,4.60
2019-04-23T10:22:56.660Z,4.10
2019-04-23T10:25:25.901Z,4.70
2019-04-23T10:28:00.543Z,4.10
2019-04-23T10:30:26.799Z,4.33
2019-04-23T10:32:55.974Z,4.37
2019-04-23T10:35:35.103Z,4.43
2019-04-23T10:38:03.728Z,5.27
2019-04-23T10:40:33.626Z,4.97
2019-04-23T10:42:59.716Z,4.50
2019-04-23T10:45:57.192Z,4.00
2019-04-23T10:49:01.431Z,4.83
2019-04-23T10:51:38.600Z,4.93
2019-04-23T10:54:18.192Z,4.37
2019-04-23T10:59:08.258Z,3.77
2019-04-23T11:01:47.624Z,3.70
2019-04-23T11:04:21.465Z,3.73
2019-04-23T11:09:27.251Z,3.90
2019-04-23T11:11:52.592Z,3.83
2019-04-23T11:14:25.391Z,3.53
2019-04-23T11:16:58.202Z,3.67
2019-04-23T11:19:32.024Z,4.30
2019-04-23T11:22:10.165Z,3.80
2019-04-23T11:24:36.238Z,4.03
2019-04-23T11:26:57.452Z,4.03
2019-04-23T11:29:34.234Z,4.13
2019-04-23T11:32:06.958Z,3.37
2019-04-23T11:34:51.612Z,3.63
2019-04-23T11:39:32.549Z,3.40
2019-04-23T11:44:49.880Z,3.47
2019-04-23T11:52:08.228Z,4.03
2019-04-23T11:54:39.001Z,3.47
2019-04-23T11:59:44.361Z,3.50
2019-04-23T12:02:32.705Z,3.43
2019-04-23T12:07:49.833Z,3.43
2019-04-23T12:10:43.019Z,3.43
2019-04-23T12:13:10.551Z,4.00
2019-04-23T12:18:05.368Z,4.10
2019-04-23T12:23:13.928Z,3.47
2019-04-23T12:26:19.514Z,3.70
2019-04-23T12:27:59.554Z,4.33
2019-04-23T12:30:39.466Z,4.00
2019-04-23T12:35:43.926Z,3.37
2019-04-23T12:40:44.200Z,3.33
2019-04-23T12:45:37.271Z,3.47
2019-04-23T12:50:51.637Z,3.70
2019-04-23T12:53:19.656Z,3.50
2019-04-23T12:58:22.079Z,3.20
2019-04-23T13:00:44.431Z,2.90
2019-04-23T13:05:37.406Z,2.53
2019-04-23T13:08:38.034Z,2.53
2019-04-23T13:13:31.818Z,2.70
2019-04-23T13:16:14.604Z,2.87
2019-04-23T13:18:31.896Z,2.70
2019-04-23T13:20:51.214Z,2.87
2019-04-23T13:23:32.532Z,2.83
2019-04-23T13:25:59.606Z,2.73
2019-04-23T13:28:35.223Z,2.33
2019-04-23T13:31:12.172Z,2.90
2019-04-23T13:41:19.148Z,3.43
2019-04-23T13:43:47.801Z,3.33
2019-04-23T13:46:12.855Z,2.77
2019-04-23T13:48:36.001Z,3.60
2019-04-23T13:53:46.665Z,3.20
2019-04-23T13:59:12.023Z,3.47
2019-04-23T14:01:25.420Z,3.10
2019-04-23T14:03:48.242Z,3.67
2019-04-23T14:11:24.824Z,3.50
2019-04-23T14:16:33.065Z,2.60
2019-04-23T14:21:24.888Z,2.80
2019-04-23T14:24:08.985Z,2.70
2019-04-23T14:26:29.675Z,3.97
2019-04-23T14:29:16.279Z,3.77
2019-04-23T14:31:22.018Z,4.13
2019-04-23T14:34:07.947Z,3.37
2019-04-23T14:39:18.737Z,4.00
2019-04-23T14:41:26.037Z,3.00
2019-04-23T14:44:10.429Z,3.50
2019-04-23T14:49:16.139Z,5.17
2019-04-23T14:51:42.646Z,3.10
2019-04-23T14:54:24.924Z,3.43
2019-04-23T14:56:56.918Z,6.57
2019-04-23T14:59:10.977Z,4.47
2019-04-23T15:01:49.465Z,3.50
2019-04-23T15:04:19.150Z,3.27
2019-04-23T15:12:02.199Z,3.30
2019-04-23T15:14:23.362Z,3.30
2019-04-23T15:24:35.241Z,3.33
2019-04-23T15:27:58.726Z,3.47
2019-04-23T15:29:22.610Z,3.47
2019-04-23T15:42:12.718Z,3.60
2019-04-23T15:44:45.348Z,3.53
2019-04-23T15:47:24.986Z,3.00
2019-04-23T15:49:49.237Z,2.93
2019-04-23T15:52:27.889Z,3.27
2019-04-23T15:54:43.041Z,3.13
2019-04-23T15:57:47.727Z,3.10
2019-04-23T16:01:46.478Z,4.83
2019-04-23T16:04:17.689Z,3.60
2019-04-23T16:06:47.684Z,3.00
2019-04-23T16:09:46.198Z,3.57
2019-04-23T16:12:11.430Z,3.40
2019-04-23T16:14:56.474Z,3.03
2019-04-23T16:17:27.685Z,6.93
2019-04-23T17:03:46.523Z,3.30
2019-04-23T17:06:15.672Z,3.23
2019-04-23T17:11:19.143Z,3.77
2019-04-23T17:16:28.493Z,3.50
2019-04-23T17:18:56.319Z,3.10
2019-04-23T17:21:20.250Z,3.53
2019-04-23T17:24:02.981Z,3.23
2019-04-23T17:26:25.224Z,3.77
2019-04-23T17:36:50.115Z,3.07
2019-04-23T17:39:43.913Z,3.57
2019-04-23T17:42:19.413Z,3.30
2019-04-23T17:47:28.530Z,3.23
2019-04-23T17:55:04.666Z,3.00
2019-04-23T17:57:28.421Z,3.10
2019-04-23T18:05:06.279Z,3.00
2019-04-23T18:07:46.457Z,3.03
2019-04-23T18:10:22.238Z,2.97
2019-04-23T18:12:48.225Z,3.23
2019-04-23T18:15:05.050Z,3.00
2019-04-23T18:22:46.994Z,3.00
2019-04-23T18:25:16.669Z,3.23
2019-04-23T18:27:50.733Z,3.27
2019-04-23T18:30:26.148Z,3.53
2019-04-23T18:35:51.295Z,3.20
2019-04-23T18:40:59.217Z,2.70
2019-04-23T18:46:03.949Z,3.10
2019-04-23T18:53:41.208Z,3.30
2019-04-23T18:58:44.768Z,2.90
2019-04-23T19:04:20.079Z,2.93
2019-04-23T19:06:40.809Z,3.23
2019-04-23T19:09:16.214Z,2.80
2019-04-23T19:12:14.340Z,2.23
2019-04-23T19:17:31.934Z,2.80
2019-04-23T19:19:33.650Z,3.27
2019-04-23T19:24:34.616Z,5.87
2019-04-23T19:32:00.629Z,2.47
2019-04-23T19:37:18.508Z,2.73
2019-04-23T19:42:11.902Z,2.63
2019-04-23T19:44:43.492Z,2.70
2019-04-23T19:49:40.603Z,2.30
2019-04-23T19:52:18.768Z,2.10
2019-04-23T19:54:52.084Z,2.90
2019-04-23T19:57:19.925Z,2.40
2019-04-23T19:59:50.606Z,2.47
2019-04-23T20:04:50.699Z,2.53
2019-04-23T20:12:25.978Z,2.20
2019-04-23T20:14:52.344Z,2.13
2019-04-23T20:17:39.378Z,2.00
2019-04-23T20:22:39.969Z,2.30
2019-04-23T20:25:18.875Z,2.40
2019-04-23T20:27:28.748Z,2.20
2019-04-23T20:35:39.816Z,2.10
2019-04-23T20:38:25.537Z,2.20
2019-04-23T20:40:49.179Z,2.07
2019-04-23T20:43:41.110Z,2.03
2019-04-23T20:45:46.579Z,2.00
2019-04-23T20:48:18.714Z,1.73
2019-04-23T20:50:48.863Z,1.93
2019-04-23T20:53:13.623Z,2.20
2019-04-23T20:56:05.494Z,1.93
2019-04-23T20:58:31.262Z,2.10
2019-04-23T21:01:13.180Z,2.20
2019-04-23T21:03:46.642Z,2.70
2019-04-23T21:06:08.738Z,2.30
2019-04-23T21:09:04.490Z,2.20
2019-04-23T21:11:05.402Z,2.03
2019-04-23T21:14:01.639Z,2.53
2019-04-23T21:18:41.202Z,1.90
2019-04-23T21:21:33.297Z,2.13
2019-04-23T21:23:50.412Z,1.90
2019-04-23T21:26:07.925Z,1.90
2019-04-23T21:31:26.661Z,2.00
2019-04-23T21:37:07.824Z,2.10
2019-04-23T21:40:00.960Z,2.43
2019-04-23T21:42:14.486Z,2.10
2019-04-23T21:44:45.422Z,1.93
2019-04-23T21:47:17.097Z,2.47
2019-04-23T21:50:02.915Z,2.10
2019-04-23T21:52:17.996Z,1.77
2019-04-23T21:54:49.277Z,1.97
2019-04-23T21:57:29.508Z,2.20
2019-04-23T22:02:23.250Z,1.90
2019-04-23T22:05:12.205Z,1.77
2019-04-23T22:07:29.453Z,2.27
2019-04-23T22:09:59.147Z,2.23
2019-04-23T22:12:28.221Z,1.60
2019-04-23T22:14:50.675Z,1.80
2019-04-23T22:17:28.269Z,1.90
2019-04-23T22:20:06.098Z,1.90
2019-04-23T22:22:28.222Z,2.07
2019-04-23T22:24:59.218Z,1.67
2019-04-23T22:27:24.292Z,2.17
2019-04-23T22:29:59.169Z,1.70
2019-04-23T22:32:39.615Z,1.73
2019-04-23T22:35:05.918Z,1.80
2019-04-23T22:37:38.331Z,1.73
2019-04-23T22:39:59.116Z,1.97
2019-04-23T22:42:57.420Z,1.60
2019-04-23T22:47:39.457Z,1.60
2019-04-23T22:50:06.113Z,1.80
2019-04-23T22:52:40.849Z,1.60
2019-04-23T22:55:09.305Z,1.67
2019-04-23T22:57:56.718Z,1.90
2019-04-23T23:00:13.768Z,1.43
2019-04-23T23:06:04.442Z,1.70
2019-04-23T23:10:50.786Z,1.80
2019-04-23T23:13:18.308Z,1.77
2019-04-23T23:15:53.278Z,1.67
2019-04-23T23:23:21.548Z,1.70
2019-04-23T23:25:57.314Z,1.80
2019-04-23T23:28:28.673Z,1.47
2019-04-23T23:31:03.961Z,1.53
2019-04-23T23:33:24.604Z,1.47
2019-04-23T23:36:03.156Z,1.50
2019-04-23T23:38:36.918Z,1.80
2019-04-23T23:41:12.391Z,1.70
2019-04-23T23:46:24.448Z,1.47
2019-04-23T23:48:29.433Z,1.60
2019-04-23T23:53:42.840Z,1.80
